createdAt,value
2024-02-10T00:07:13.854Z,19.4
2024-02-10T00:17:13.862Z,19.4
2024-02-10T00:27:14.087Z,19.4
2024-02-10T00:37:14.294Z,19.4
2024-02-10T00:47:14.499Z,19.4
2024-02-10T00:57:14.679Z,19.4
2024-02-10T01:07:14.895Z,19.4
2024-02-10T01:17:15.101Z,19.4
2024-02-10T01:27:15.269Z,19.4
2024-02-10T01:37:15.474Z,19.4
2024-02-10T01:47:15.675Z,19.4
2024-02-10T01:57:15.902Z,19.3
2024-02-10T02:07:16.119Z,19.3
2024-02-10T02:17:16.267Z,19.3
2024-02-10T02:27:16.739Z,19.3
2024-02-10T02:37:16.680Z,19.3
2024-02-10T02:47:16.892Z,19.3
2024-02-10T03:07:17.339Z,19.3
2024-02-10T03:17:17.477Z,19.3
2024-02-10T03:27:17.702Z,19.3
2024-02-10T03:37:17.921Z,19.3
2024-02-10T03:47:18.057Z,19.3
2024-02-10T03:57:18.275Z,19.2
2024-02-10T04:07:18.459Z,19.2
2024-02-10T10:57:26.677Z,21.1
2024-02-10T11:27:27.258Z,21
2024-02-10T11:37:27.470Z,21
2024-02-10T11:47:27.674Z,21
2024-02-10T11:57:27.852Z,21
2024-02-10T13:07:29.244Z,20.8
2024-02-10T13:17:29.433Z,20.7
2024-02-10T13:47:30.062Z,20.7
2024-02-10T13:57:30.210Z,20.6
2024-02-10T14:07:30.481Z,20.6
2024-02-10T14:17:30.666Z,20.6
2024-02-10T14:27:30.807Z,20.6
2024-02-10T14:47:31.283Z,20.5
2024-02-10T14:57:31.424Z,20.5
2024-02-10T15:17:31.797Z,20.3
2024-02-10T15:27:32.017Z,20.3
2024-02-10T15:37:32.234Z,20.3
2024-02-10T15:47:32.447Z,20.3
2024-02-10T16:07:32.898Z,20.3
2024-02-10T16:57:34.065Z,20.2
2024-02-10T17:07:34.001Z,20.2
2024-02-10T17:17:34.371Z,20.1
2024-02-10T17:27:34.375Z,20.1
2024-02-10T17:47:34.846Z,20.1
2024-02-10T17:57:35.006Z,20
2024-02-10T18:47:36.028Z,19.9
2024-02-10T19:27:36.836Z,19.9
2024-02-10T19:37:37.011Z,19.9
2024-02-10T19:47:37.287Z,19.9
2024-02-10T20:07:37.596Z,19.8
2024-02-10T20:27:37.997Z,19.8
2024-02-10T20:37:38.213Z,19.8
2024-02-10T20:47:38.650Z,19.8
2024-02-10T21:07:38.791Z,19.8
2024-02-10T21:27:39.234Z,19.7
2024-02-10T21:37:39.357Z,19.7
2024-02-10T21:47:39.652Z,19.7
2024-02-10T22:07:39.981Z,19.7
2024-02-10T22:27:40.375Z,19.6
2024-02-10T22:47:40.878Z,19.6
2024-02-10T22:57:40.977Z,19.6
2024-02-10T23:07:41.182Z,19.6
2024-02-10T23:17:41.474Z,19.6
2024-02-10T23:27:41.565Z,19.6
2024-02-10T23:37:41.802Z,19.6
2024-02-10T23:47:42.014Z,19.5
2024-02-10T23:57:42.153Z,19.5
